createdAt,value
2019-02-21T00:01:38.049Z,22.37
2019-02-21T00:04:18.415Z,17.03
2019-02-21T00:09:57.696Z,16.27
2019-02-21T00:27:43.504Z,16.10
2019-02-21T00:33:35.780Z,22.33
2019-02-21T00:39:28.727Z,20.00
2019-02-21T00:42:09.468Z,21.50
2019-02-21T00:44:50.639Z,20.57
2019-02-21T00:47:31.494Z,27.50
2019-02-21T00:50:11.895Z,19.63
2019-02-21T00:52:52.279Z,14.80
2019-02-21T00:55:33.075Z,17.50
2019-02-21T00:58:13.654Z,17.77
2019-02-21T01:00:54.623Z,15.13
2019-02-21T01:03:35.367Z,18.50
2019-02-21T01:06:16.460Z,16.87
2019-02-21T01:08:57.012Z,15.50
2019-02-21T01:11:38.223Z,21.80
2019-02-21T01:14:19.150Z,20.53
2019-02-21T01:16:59.837Z,22.02
2019-02-21T01:19:40.207Z,26.50
2019-02-21T01:25:25.144Z,18.80
2019-02-21T01:28:05.736Z,16.40
2019-02-21T01:33:48.530Z,13.17
2019-02-21T01:36:29.140Z,16.60
2019-02-21T01:39:09.719Z,20.30
2019-02-21T01:41:51.099Z,14.27
2019-02-21T01:44:31.564Z,18.60
2019-02-21T01:47:12.181Z,19.70
2019-02-21T01:49:52.909Z,17.67
2019-02-21T01:52:33.796Z,34.45
2019-02-21T01:55:14.836Z,18.57
2019-02-21T01:57:55.568Z,20.92
2019-02-21T02:00:36.275Z,19.75
2019-02-21T02:06:16.412Z,14.03
2019-02-21T02:08:57.031Z,17.87
2019-02-21T02:11:37.575Z,19.73
2019-02-21T02:14:18.346Z,18.48
2019-02-21T02:16:58.755Z,16.57
2019-02-21T02:19:39.509Z,15.95
2019-02-21T02:22:20.078Z,22.58
2019-02-21T02:25:01.096Z,15.85
2019-02-21T02:27:42.551Z,18.12
2019-02-21T02:30:23.693Z,19.85
2019-02-21T02:33:04.528Z,15.53
2019-02-21T02:35:45.563Z,16.45
2019-02-21T02:38:26.083Z,25.90
2019-02-21T02:40:55.548Z,19.65
2019-02-21T02:43:43.842Z,18.20
2019-02-21T02:46:31.960Z,20.57
2019-02-21T02:49:20.155Z,18.82
2019-02-21T02:52:08.619Z,18.17
2019-02-21T02:54:56.703Z,19.25
2019-02-21T02:57:44.737Z,15.72
2019-02-21T03:00:32.758Z,17.25
2019-02-21T03:03:20.444Z,20.92
2019-02-21T03:06:08.530Z,18.20
2019-02-21T03:08:56.801Z,26.62
2019-02-21T03:11:44.918Z,18.37
2019-02-21T03:14:32.919Z,17.80
2019-02-21T03:17:20.474Z,16.17
2019-02-21T03:20:08.927Z,16.90
2019-02-21T03:22:57.506Z,15.57
2019-02-21T03:25:45.588Z,23.80
2019-02-21T03:28:33.887Z,18.80
2019-02-21T03:31:22.295Z,17.27
2019-02-21T03:34:10.375Z,17.77
2019-02-21T03:36:58.563Z,23.12
2019-02-21T03:39:46.840Z,15.80
2019-02-21T03:42:34.847Z,17.83
2019-02-21T03:45:22.907Z,18.82
2019-02-21T03:48:10.990Z,18.27
2019-02-21T03:50:58.992Z,20.32
2019-02-21T03:53:47.324Z,17.52
2019-02-21T03:56:35.660Z,15.80
2019-02-21T03:59:23.734Z,21.60
2019-02-21T04:02:11.801Z,21.50
2019-02-21T04:05:00.364Z,23.20
2019-02-21T04:07:43.169Z,20.80
2019-02-21T04:10:23.623Z,22.50
2019-02-21T04:13:03.991Z,22.75
2019-02-21T04:15:44.836Z,20.80
2019-02-21T04:18:25.775Z,15.83
2019-02-21T04:21:06.658Z,23.67
2019-02-21T04:23:47.920Z,20.63
2019-02-21T04:26:28.562Z,22.27
2019-02-21T04:29:09.247Z,19.98
2019-02-21T04:31:50.026Z,18.17
2019-02-21T04:34:31.585Z,21.97
2019-02-21T04:37:12.833Z,20.90
2019-02-21T04:39:53.307Z,19.57
2019-02-21T04:42:34.052Z,25.30
2019-02-21T04:45:15.169Z,25.30
2019-02-21T04:47:55.537Z,21.12
2019-02-21T04:50:36.429Z,24.32
2019-02-21T04:53:17.292Z,22.62
2019-02-21T04:55:57.956Z,23.27
2019-02-21T04:58:38.823Z,28.20
2019-02-21T05:01:19.449Z,25.92
2019-02-21T05:04:00.175Z,27.75
2019-02-21T05:06:40.974Z,33.73
2019-02-21T05:09:21.945Z,23.73
2019-02-21T05:12:03.222Z,36.60
2019-02-21T05:14:44.069Z,29.05
2019-02-21T05:17:24.696Z,25.70
2019-02-21T05:20:05.425Z,32.25
2019-02-21T05:22:46.216Z,32.58
2019-02-21T05:25:27.082Z,34.27
2019-02-21T05:31:10.595Z,22.98
2019-02-21T05:33:56.683Z,30.50
2019-02-21T05:36:56.540Z,24.90
2019-02-21T05:39:56.354Z,33.15
2019-02-21T05:43:01.499Z,27.93
2019-02-21T05:46:01.738Z,29.10
2019-02-21T05:48:52.304Z,31.82
2019-02-21T05:57:47.082Z,33.60
2019-02-21T06:00:47.238Z,33.85
2019-02-21T06:03:46.842Z,30.97
2019-02-21T06:06:39.108Z,33.98
2019-02-21T06:09:24.672Z,32.50
2019-02-21T06:18:29.115Z,33.33
2019-02-21T06:21:29.028Z,49.13
2019-02-21T06:24:29.381Z,29.77
2019-02-21T06:27:29.715Z,43.65
2019-02-21T06:30:05.313Z,34.78
2019-02-21T06:32:34.131Z,34.58
2019-02-21T06:35:03.264Z,35.05
2019-02-21T06:37:32.212Z,32.05
2019-02-21T06:40:01.341Z,33.23
2019-02-21T06:42:30.385Z,35.88
2019-02-21T06:44:59.189Z,29.25
2019-02-21T06:47:28.115Z,30.88
2019-02-21T06:49:58.693Z,26.40
2019-02-21T06:52:27.868Z,31.62
2019-02-21T06:54:56.918Z,30.80
2019-02-21T06:57:26.078Z,28.73
2019-02-21T06:59:55.219Z,25.72
2019-02-21T07:02:24.469Z,30.12
2019-02-21T07:04:53.306Z,34.77
2019-02-21T07:07:22.295Z,34.45
2019-02-21T07:09:51.344Z,33.38
2019-02-21T07:12:20.445Z,29.40
2019-02-21T07:14:49.333Z,29.87
2019-02-21T07:17:18.216Z,27.15
2019-02-21T07:19:47.022Z,28.83
2019-02-21T07:22:18.081Z,28.75
2019-02-21T07:24:49.535Z,33.25
2019-02-21T07:27:18.639Z,29.42
2019-02-21T07:29:47.475Z,31.40
2019-02-21T07:32:16.640Z,27.03
2019-02-21T07:34:45.504Z,29.10
2019-02-21T07:37:18.572Z,33.60
2019-02-21T07:39:45.132Z,26.97
2019-02-21T07:42:13.940Z,25.97
2019-02-21T07:44:45.320Z,27.23
2019-02-21T07:47:13.901Z,30.60
2019-02-21T07:49:42.775Z,28.70
2019-02-21T07:52:12.125Z,26.00
2019-02-21T07:54:41.452Z,34.00
2019-02-21T07:57:10.336Z,27.77
2019-02-21T07:59:39.388Z,18.10
2019-02-21T08:02:08.528Z,29.00
2019-02-21T08:04:37.324Z,39.33
2019-02-21T08:07:06.210Z,30.83
2019-02-21T08:09:35.051Z,25.27
2019-02-21T08:12:04.313Z,17.13
2019-02-21T08:14:33.689Z,25.83
2019-02-21T08:17:02.571Z,29.63
2019-02-21T08:19:31.655Z,21.97
2019-02-21T08:22:00.878Z,34.90
2019-02-21T08:24:29.891Z,14.07
2019-02-21T08:26:59.207Z,22.27
2019-02-21T08:29:28.127Z,26.73
2019-02-21T08:31:57.294Z,19.80
2019-02-21T08:34:31.129Z,18.33
2019-02-21T08:36:59.988Z,21.77
2019-02-21T08:39:28.851Z,34.57
2019-02-21T08:41:57.742Z,29.83
2019-02-21T08:44:28.810Z,28.10
2019-02-21T08:46:57.308Z,35.92
2019-02-21T08:49:26.641Z,33.35
2019-02-21T08:51:55.939Z,30.33
2019-02-21T08:54:24.749Z,36.90
2019-02-21T08:56:53.596Z,31.30
2019-02-21T08:59:22.549Z,23.47
2019-02-21T09:01:51.348Z,31.33
2019-02-21T09:04:27.272Z,31.60
2019-02-21T09:06:50.868Z,34.73
2019-02-21T09:09:19.847Z,36.00
2019-02-21T09:11:48.670Z,33.00
2019-02-21T09:14:17.552Z,34.40
2019-02-21T09:16:46.658Z,36.83
2019-02-21T09:19:15.456Z,31.43
2019-02-21T09:21:44.212Z,26.77
2019-02-21T09:24:13.937Z,34.30
2019-02-21T09:26:43.657Z,33.30
2019-02-21T09:29:12.521Z,30.97
2019-02-21T09:31:41.644Z,33.23
2019-02-21T09:34:20.965Z,34.53
2019-02-21T09:36:41.680Z,28.70
2019-02-21T09:39:10.913Z,34.13
2019-02-21T09:41:40.148Z,29.53
2019-02-21T09:44:09.398Z,30.80
2019-02-21T09:46:40.635Z,32.63
2019-02-21T09:49:09.574Z,31.30
2019-02-21T09:51:38.450Z,30.40
2019-02-21T09:54:07.397Z,27.80
2019-02-21T09:56:36.247Z,28.33
2019-02-21T09:59:05.276Z,32.17
2019-02-21T10:01:34.082Z,26.43
2019-02-21T10:04:03.267Z,27.50
2019-02-21T10:06:32.372Z,26.83
2019-02-21T10:09:01.172Z,25.80
2019-02-21T10:11:30.072Z,31.67
2019-02-21T10:13:58.896Z,27.07
2019-02-21T10:16:27.755Z,27.83
2019-02-21T10:18:56.625Z,25.20
2019-02-21T10:21:25.411Z,28.90
2019-02-21T10:23:56.606Z,32.10
2019-02-21T10:26:25.263Z,29.00
2019-02-21T10:28:54.292Z,25.70
2019-02-21T10:31:23.771Z,31.07
2019-02-21T10:33:52.555Z,30.07
2019-02-21T10:36:21.501Z,31.23
2019-02-21T10:38:50.403Z,30.30
2019-02-21T10:41:19.388Z,28.77
2019-02-21T10:43:48.236Z,30.50
2019-02-21T10:46:17.328Z,33.23
2019-02-21T10:48:46.304Z,28.70
2019-02-21T10:51:15.184Z,31.13
2019-02-21T10:53:44.291Z,33.70
2019-02-21T10:56:13.388Z,31.10
2019-02-21T10:58:42.331Z,30.07
2019-02-21T11:01:11.392Z,33.63
2019-02-21T11:03:40.275Z,28.63
2019-02-21T11:06:09.335Z,29.83
2019-02-21T11:08:38.234Z,23.00
2019-02-21T11:11:07.216Z,31.37
2019-02-21T11:13:36.179Z,29.13
2019-02-21T11:16:04.975Z,27.60
2019-02-21T11:18:34.163Z,27.77
2019-02-21T11:21:03.015Z,33.20
2019-02-21T11:23:31.975Z,28.93
2019-02-21T11:26:01.080Z,32.13
2019-02-21T11:28:30.048Z,29.73
2019-02-21T11:30:59.224Z,27.40
2019-02-21T11:33:28.100Z,32.17
2019-02-21T11:35:57.479Z,30.53
2019-02-21T11:38:26.599Z,30.40
2019-02-21T11:40:55.491Z,26.80
2019-02-21T11:43:24.891Z,27.57
2019-02-21T11:45:57.293Z,28.13
2019-02-21T11:48:24.434Z,29.03
2019-02-21T11:50:53.555Z,32.27
2019-02-21T11:53:22.730Z,27.53
2019-02-21T11:55:51.881Z,26.50
2019-02-21T11:58:20.944Z,30.80
2019-02-21T12:00:49.928Z,25.60
2019-02-21T12:03:21.260Z,28.13
2019-02-21T12:05:49.686Z,35.33
2019-02-21T12:08:18.596Z,34.30
2019-02-21T12:10:47.511Z,32.77
2019-02-21T12:13:16.313Z,29.40
2019-02-21T12:15:45.723Z,35.83
2019-02-21T12:18:14.630Z,26.00
2019-02-21T12:20:43.558Z,29.37
2019-02-21T12:23:12.839Z,30.93
2019-02-21T12:25:41.783Z,35.30
2019-02-21T12:28:10.611Z,31.23
2019-02-21T12:30:39.626Z,32.10
2019-02-21T12:33:08.840Z,32.67
2019-02-21T12:35:37.995Z,25.57
2019-02-21T12:38:07.267Z,26.40
2019-02-21T12:40:36.229Z,27.67
2019-02-21T12:43:05.264Z,26.90
2019-02-21T12:45:34.450Z,26.57
2019-02-21T12:48:03.306Z,27.40
2019-02-21T12:50:43.519Z,28.50
2019-02-21T12:53:02.974Z,26.50
2019-02-21T12:55:32.088Z,30.20
2019-02-21T12:58:01.220Z,28.63
2019-02-21T13:00:30.182Z,27.13
2019-02-21T13:02:59.095Z,28.87
2019-02-21T13:05:28.259Z,28.03
2019-02-21T13:07:57.463Z,34.70
2019-02-21T13:10:26.576Z,29.70
2019-02-21T13:12:55.468Z,22.67
2019-02-21T13:15:24.554Z,30.33
2019-02-21T13:17:53.370Z,31.87
2019-02-21T13:20:22.247Z,24.23
2019-02-21T13:22:51.617Z,27.70
2019-02-21T13:25:20.663Z,24.47
2019-02-21T13:27:49.679Z,30.80
2019-02-21T13:30:19.016Z,44.03
2019-02-21T13:32:48.498Z,34.60
2019-02-21T13:35:17.785Z,31.30
2019-02-21T13:37:46.714Z,24.90
2019-02-21T13:40:15.727Z,31.77
2019-02-21T13:42:44.807Z,27.03
2019-02-21T13:45:17.158Z,31.03
2019-02-21T13:47:45.455Z,25.67
2019-02-21T13:50:15.763Z,35.00
2019-02-21T13:52:44.754Z,32.87
2019-02-21T13:55:13.760Z,29.80
2019-02-21T13:57:43.247Z,29.80
2019-02-21T14:00:14.264Z,29.30
2019-02-21T14:02:43.427Z,24.20
2019-02-21T14:05:12.421Z,33.07
2019-02-21T14:07:41.391Z,35.00
2019-02-21T14:10:11.043Z,41.83
2019-02-21T14:12:40.456Z,36.17
2019-02-21T14:15:14.972Z,37.50
2019-02-21T14:17:46.546Z,27.50
2019-02-21T14:20:15.215Z,34.20
2019-02-21T14:22:44.185Z,28.03
2019-02-21T14:25:13.150Z,28.10
2019-02-21T14:27:49.478Z,33.93
2019-02-21T14:30:18.648Z,28.00
2019-02-21T14:32:47.691Z,26.80
2019-02-21T14:35:17.225Z,29.33
2019-02-21T14:37:46.488Z,30.93
2019-02-21T14:40:15.529Z,30.13
2019-02-21T14:42:44.716Z,28.67
2019-02-21T14:45:15.260Z,25.20
2019-02-21T14:47:44.251Z,30.93
2019-02-21T14:50:13.417Z,37.00
2019-02-21T14:52:42.889Z,26.30
2019-02-21T14:55:12.450Z,26.40
2019-02-21T14:57:41.519Z,28.27
2019-02-21T15:00:19.329Z,24.97
2019-02-21T15:02:48.392Z,24.63
2019-02-21T15:05:17.947Z,26.97
2019-02-21T15:07:47.159Z,25.90
2019-02-21T15:10:16.300Z,24.40
2019-02-21T15:12:45.343Z,32.60
2019-02-21T15:15:15.466Z,25.00
2019-02-21T15:17:44.598Z,25.60
2019-02-21T15:20:14.222Z,25.10
2019-02-21T15:22:43.664Z,22.50
2019-02-21T15:25:12.937Z,31.07
2019-02-21T15:27:41.984Z,23.57
2019-02-21T15:30:13.375Z,26.37
2019-02-21T15:32:44.976Z,36.57
2019-02-21T15:35:14.887Z,28.50
2019-02-21T15:37:45.197Z,25.10
2019-02-21T15:40:14.776Z,27.23
2019-02-21T15:42:43.971Z,28.93
2019-02-21T15:45:22.316Z,32.13
2019-02-21T15:47:46.101Z,31.97
2019-02-21T15:50:15.167Z,26.43
2019-02-21T15:52:44.671Z,25.67
2019-02-21T15:55:14.376Z,26.23
2019-02-21T15:57:43.372Z,23.83
2019-02-21T16:00:14.674Z,27.23
2019-02-21T16:02:45.504Z,22.80
2019-02-21T16:05:14.672Z,25.07
2019-02-21T16:07:43.703Z,28.37
2019-02-21T16:10:14.708Z,25.27
2019-02-21T16:12:44.203Z,32.13
2019-02-21T16:15:16.443Z,19.27
2019-02-21T16:17:44.928Z,26.30
2019-02-21T16:20:14.482Z,32.30
2019-02-21T16:22:43.795Z,28.00
2019-02-21T16:25:15.027Z,26.67
2019-02-21T16:27:45.094Z,24.70
2019-02-21T16:30:14.191Z,27.70
2019-02-21T16:32:43.448Z,21.47
2019-02-21T16:35:12.400Z,28.07
2019-02-21T16:37:41.731Z,33.70
2019-02-21T16:40:14.158Z,27.93
2019-02-21T16:42:43.326Z,25.70
2019-02-21T16:45:13.394Z,33.10
2019-02-21T16:47:42.438Z,24.43
2019-02-21T16:50:12.560Z,26.60
2019-02-21T16:52:41.844Z,34.10
2019-02-21T16:55:12.951Z,23.17
2019-02-21T16:57:42.231Z,28.40
2019-02-21T17:00:12.348Z,29.90
2019-02-21T17:02:41.596Z,29.27
2019-02-21T17:05:11.050Z,29.90
2019-02-21T17:07:40.013Z,30.20
2019-02-21T17:10:11.282Z,30.60
2019-02-21T17:12:40.505Z,35.50
2019-02-21T17:15:10.921Z,31.57
2019-02-21T17:17:39.906Z,29.20
2019-02-21T17:20:10.519Z,33.40
2019-02-21T17:22:39.439Z,28.07
2019-02-21T17:25:09.387Z,30.63
2019-02-21T17:27:38.595Z,26.87
2019-02-21T17:30:08.442Z,33.20
2019-02-21T17:32:37.271Z,29.77
2019-02-21T17:35:06.843Z,30.27
2019-02-21T17:37:35.837Z,29.03
2019-02-21T17:40:05.946Z,29.70
2019-02-21T17:42:35.573Z,23.40
2019-02-21T17:45:04.531Z,30.37
2019-02-21T17:47:33.456Z,30.80
2019-02-21T17:50:02.741Z,29.33
2019-02-21T17:52:32.208Z,28.33
2019-02-21T17:55:01.059Z,31.63
2019-02-21T17:57:30.026Z,26.50
2019-02-21T17:59:58.846Z,33.10
2019-02-21T18:02:27.862Z,33.27
2019-02-21T18:04:56.695Z,32.13
2019-02-21T18:07:35.842Z,36.63
2019-02-21T18:09:56.742Z,33.57
2019-02-21T18:12:25.917Z,33.67
2019-02-21T18:14:54.841Z,32.73
2019-02-21T18:17:23.883Z,36.20
2019-02-21T18:19:52.769Z,38.87
2019-02-21T18:22:21.884Z,33.57
2019-02-21T18:24:51.470Z,31.17
2019-02-21T18:27:20.327Z,34.27
2019-02-21T18:29:49.228Z,36.97
2019-02-21T18:32:18.208Z,30.50
2019-02-21T18:34:49.476Z,34.60
2019-02-21T18:37:18.151Z,27.10
2019-02-21T18:39:47.002Z,33.37
2019-02-21T18:42:15.991Z,34.03
2019-02-21T18:44:44.819Z,33.70
2019-02-21T18:47:13.930Z,40.03
2019-02-21T18:49:43.111Z,28.33
2019-02-21T18:52:12.079Z,35.03
2019-02-21T18:54:41.219Z,39.55
2019-02-21T18:57:12.266Z,46.30
2019-02-21T18:59:41.262Z,33.10
2019-02-21T19:02:10.128Z,39.13
2019-02-21T19:04:39.015Z,36.50
2019-02-21T19:07:08.168Z,39.63
2019-02-21T19:09:37.067Z,36.90
2019-02-21T19:12:06.284Z,31.30
2019-02-21T19:14:35.667Z,38.33
2019-02-21T19:17:04.872Z,42.13
2019-02-21T19:19:34.082Z,39.63
2019-02-21T19:22:03.352Z,41.33
2019-02-21T19:24:32.243Z,35.50
2019-02-21T19:27:01.124Z,34.30
2019-02-21T19:29:30.077Z,33.33
2019-02-21T19:31:59.118Z,38.40
2019-02-21T19:34:28.252Z,33.87
2019-02-21T19:36:57.117Z,47.60
2019-02-21T19:39:26.350Z,42.37
2019-02-21T19:41:55.399Z,33.93
2019-02-21T19:44:24.240Z,38.07
2019-02-21T19:46:53.480Z,38.30
2019-02-21T19:49:22.643Z,41.00
2019-02-21T19:51:51.639Z,38.93
2019-02-21T19:54:20.499Z,38.77
2019-02-21T19:56:49.603Z,37.53
2019-02-21T19:59:18.689Z,36.83
2019-02-21T20:01:47.933Z,34.10
2019-02-21T20:04:16.850Z,33.70
2019-02-21T20:06:45.657Z,34.30
2019-02-21T20:09:14.966Z,34.30
2019-02-21T20:11:44.155Z,31.07
2019-02-21T20:14:13.413Z,31.73
2019-02-21T20:16:42.679Z,37.00
2019-02-21T20:19:11.742Z,31.43
2019-02-21T20:21:40.551Z,35.80
2019-02-21T20:24:09.568Z,34.20
2019-02-21T20:26:38.555Z,39.00
2019-02-21T20:29:07.697Z,32.53
2019-02-21T20:31:36.523Z,39.23
2019-02-21T20:34:05.411Z,39.37
2019-02-21T20:36:34.299Z,32.20
2019-02-21T20:39:03.847Z,34.80
2019-02-21T20:41:33.087Z,39.50
2019-02-21T20:44:02.119Z,34.40
2019-02-21T20:46:31.327Z,38.13
2019-02-21T20:49:00.489Z,35.27
2019-02-21T20:51:29.683Z,37.10
2019-02-21T20:53:58.771Z,35.10
2019-02-21T20:56:27.716Z,41.40
2019-02-21T20:58:56.868Z,34.67
2019-02-21T21:01:26.164Z,31.10
2019-02-21T21:03:55.199Z,32.63
2019-02-21T21:06:24.196Z,31.77
2019-02-21T21:08:53.432Z,34.03
2019-02-21T21:11:22.955Z,37.30
2019-02-21T21:13:51.751Z,32.13
2019-02-21T21:16:20.731Z,37.83
2019-02-21T21:18:49.774Z,34.97
2019-02-21T21:21:19.243Z,41.40
2019-02-21T21:23:48.117Z,31.10
2019-02-21T21:26:17.263Z,39.37
2019-02-21T21:28:46.425Z,34.47
2019-02-21T21:31:15.863Z,35.90
2019-02-21T21:33:44.800Z,35.30
2019-02-21T21:36:13.896Z,43.83
2019-02-21T21:38:53.390Z,41.63
2019-02-21T21:41:13.293Z,40.13
2019-02-21T21:43:42.115Z,41.00
2019-02-21T21:46:11.375Z,40.90
2019-02-21T21:48:40.931Z,37.63
2019-02-21T21:51:09.934Z,36.17
2019-02-21T21:53:38.846Z,41.20
2019-02-21T21:56:08.093Z,39.63
2019-02-21T21:58:37.192Z,47.17
2019-02-21T22:01:06.368Z,36.40
2019-02-21T22:03:35.891Z,42.20
2019-02-21T22:06:05.183Z,37.40
2019-02-21T22:08:34.155Z,39.77
2019-02-21T22:11:03.856Z,37.07
2019-02-21T22:13:33.006Z,40.00
2019-02-21T22:16:01.864Z,36.53
2019-02-21T22:18:30.828Z,37.23
2019-02-21T22:20:59.611Z,37.27
2019-02-21T22:23:28.851Z,35.43
2019-02-21T22:25:57.740Z,38.40
2019-02-21T22:28:26.652Z,41.10
2019-02-21T22:30:57.970Z,31.00
2019-02-21T22:33:26.475Z,33.10
2019-02-21T22:35:55.711Z,33.43
2019-02-21T22:38:24.831Z,36.27
2019-02-21T22:40:53.732Z,34.23
2019-02-21T22:43:22.708Z,37.10
2019-02-21T22:45:51.678Z,41.93
2019-02-21T22:48:20.798Z,36.80
2019-02-21T22:50:49.901Z,35.57
2019-02-21T22:53:18.775Z,33.00
2019-02-21T22:55:47.816Z,35.67
2019-02-21T22:58:16.631Z,35.00
2019-02-21T23:01:14.091Z,35.50
2019-02-21T23:03:49.286Z,31.13
2019-02-21T23:06:46.475Z,34.47
2019-02-21T23:09:27.096Z,37.27
2019-02-21T23:11:49.199Z,41.83
2019-02-21T23:14:19.486Z,36.90
2019-02-21T23:16:48.838Z,34.07
2019-02-21T23:19:17.780Z,41.20
2019-02-21T23:21:47.055Z,38.60
2019-02-21T23:24:16.058Z,34.67
2019-02-21T23:26:45.213Z,36.83
2019-02-21T23:29:14.006Z,38.30
2019-02-21T23:31:43.158Z,36.47
2019-02-21T23:34:33.887Z,35.83
2019-02-21T23:37:03.153Z,35.27
2019-02-21T23:39:38.385Z,30.73
2019-02-21T23:42:02.667Z,36.07
2019-02-21T23:44:31.552Z,45.20
2019-02-21T23:47:00.600Z,35.30
2019-02-21T23:49:29.731Z,38.80
2019-02-21T23:51:58.855Z,35.70
2019-02-21T23:54:27.924Z,38.70
2019-02-21T23:56:57.145Z,35.20
2019-02-21T23:59:26.252Z,39.40
